createdAt,value
2022-07-30T00:00:29.233Z,15.91
2022-07-30T00:01:29.258Z,15.91
2022-07-30T00:02:29.184Z,15.89
2022-07-30T00:03:29.195Z,15.86
2022-07-30T00:04:29.155Z,15.85
2022-07-30T00:05:29.193Z,15.85
2022-07-30T00:06:29.135Z,15.84
2022-07-30T00:07:29.124Z,15.84
2022-07-30T00:08:29.150Z,15.86
2022-07-30T00:09:29.112Z,15.86
2022-07-30T00:10:30.104Z,15.89
2022-07-30T00:11:29.062Z,15.86
2022-07-30T00:12:29.851Z,15.91
2022-07-30T00:13:29.040Z,15.86
2022-07-30T00:14:29.025Z,15.91
2022-07-30T00:15:29.044Z,15.92
2022-07-30T00:16:29.137Z,15.92
2022-07-30T00:17:28.991Z,15.91
2022-07-30T00:18:29.053Z,15.91
2022-07-30T00:19:28.955Z,15.91
2022-07-30T00:20:28.981Z,15.91
2022-07-30T00:21:35.786Z,15.92
2022-07-30T00:22:29.936Z,15.89
2022-07-30T00:23:28.903Z,15.92
2022-07-30T00:24:28.926Z,15.89
2022-07-30T00:25:28.914Z,15.89
2022-07-30T00:26:28.874Z,15.89
2022-07-30T00:27:28.854Z,15.88
2022-07-30T00:28:28.845Z,15.86
2022-07-30T00:29:28.833Z,15.85
2022-07-30T00:30:28.881Z,15.86
2022-07-30T00:31:28.814Z,15.88
2022-07-30T00:32:28.795Z,15.84
2022-07-30T00:33:28.774Z,15.88
2022-07-30T00:34:28.776Z,15.85
2022-07-30T00:35:28.781Z,15.85
2022-07-30T00:36:28.746Z,15.85
2022-07-30T00:37:28.729Z,15.84
2022-07-30T00:38:28.715Z,15.85
2022-07-30T00:39:28.695Z,15.84
2022-07-30T00:40:28.731Z,15.85
2022-07-30T00:41:28.675Z,15.84
2022-07-30T00:42:28.665Z,15.84
2022-07-30T00:43:28.645Z,15.84
2022-07-30T00:44:28.648Z,15.85
2022-07-30T00:45:28.764Z,15.84
2022-07-30T00:46:28.615Z,15.88
2022-07-30T00:47:28.596Z,15.88
2022-07-30T00:48:28.594Z,15.86
2022-07-30T00:49:28.615Z,15.88
2022-07-30T00:50:28.610Z,15.86
2022-07-30T00:51:28.539Z,15.86
2022-07-30T00:52:28.536Z,15.85
2022-07-30T00:53:28.535Z,15.84
2022-07-30T00:54:28.574Z,15.85
2022-07-30T00:55:28.517Z,15.84
2022-07-30T00:56:28.494Z,15.88
2022-07-30T00:57:28.465Z,15.85
2022-07-30T00:58:28.455Z,15.85
2022-07-30T00:59:28.444Z,15.84
2022-07-30T01:00:28.468Z,15.85
2022-07-30T01:01:28.463Z,15.85
2022-07-30T01:02:28.525Z,15.86
2022-07-30T01:03:28.386Z,15.84
2022-07-30T01:04:28.375Z,15.85
2022-07-30T01:05:28.387Z,15.84
2022-07-30T01:06:28.347Z,15.84
2022-07-30T01:07:28.335Z,15.80
2022-07-30T01:08:28.333Z,15.78
2022-07-30T01:09:28.317Z,15.76
2022-07-30T01:10:28.327Z,15.78
2022-07-30T01:11:28.298Z,15.76
2022-07-30T01:12:28.276Z,15.74
2022-07-30T01:13:28.270Z,15.73
2022-07-30T01:14:28.245Z,15.74
2022-07-30T01:15:28.323Z,15.74
2022-07-30T01:16:28.245Z,15.74
2022-07-30T01:17:28.205Z,15.77
2022-07-30T01:18:28.198Z,15.74
2022-07-30T01:19:28.195Z,15.78
2022-07-30T01:20:28.196Z,15.74
2022-07-30T01:21:28.167Z,15.76
2022-07-30T01:22:30.268Z,15.76
2022-07-30T01:23:28.128Z,15.74
2022-07-30T01:24:28.119Z,15.73
2022-07-30T01:25:28.127Z,15.76
2022-07-30T01:26:28.101Z,15.73
2022-07-30T01:27:28.076Z,15.71
2022-07-30T01:28:28.077Z,15.74
2022-07-30T01:29:28.057Z,15.71
2022-07-30T01:30:28.077Z,15.70
2022-07-30T01:31:28.074Z,15.70
2022-07-30T01:32:28.017Z,15.67
2022-07-30T01:33:28.012Z,15.66
2022-07-30T01:34:27.987Z,15.66
2022-07-30T01:35:27.997Z,15.64
2022-07-30T01:36:27.968Z,15.62
2022-07-30T01:37:27.958Z,15.66
2022-07-30T01:38:27.946Z,15.66
2022-07-30T01:39:28.918Z,15.64
2022-07-30T01:40:27.945Z,15.66
2022-07-30T01:41:27.920Z,15.66
2022-07-30T01:42:27.905Z,15.64
2022-07-30T01:43:27.876Z,15.62
2022-07-30T01:44:27.865Z,15.64
2022-07-30T01:45:27.916Z,15.67
2022-07-30T01:46:27.845Z,15.67
2022-07-30T01:47:27.834Z,15.66
2022-07-30T01:48:27.817Z,15.64
2022-07-30T01:49:27.827Z,15.68
2022-07-30T01:50:27.808Z,15.68
2022-07-30T01:51:27.769Z,15.67
2022-07-30T01:52:28.759Z,15.64
2022-07-30T01:53:27.738Z,15.67
2022-07-30T01:54:27.735Z,15.62
2022-07-30T01:55:27.737Z,15.60
2022-07-30T01:56:27.707Z,15.62
2022-07-30T01:57:27.694Z,15.64
2022-07-30T01:58:27.688Z,15.62
2022-07-30T01:59:27.670Z,15.59
2022-07-30T02:00:27.691Z,15.60
2022-07-30T02:01:27.751Z,15.60
2022-07-30T02:02:27.628Z,15.58
2022-07-30T02:03:27.644Z,15.59
2022-07-30T02:04:27.599Z,15.59
2022-07-30T02:05:27.610Z,15.55
2022-07-30T02:06:27.568Z,15.56
2022-07-30T02:07:27.562Z,15.52
2022-07-30T02:08:27.550Z,15.49
2022-07-30T02:09:27.539Z,15.51
2022-07-30T02:10:27.561Z,15.49
2022-07-30T02:11:27.508Z,15.48
2022-07-30T02:12:28.496Z,15.48
2022-07-30T02:13:27.479Z,15.46
2022-07-30T02:14:27.481Z,15.46
2022-07-30T02:15:31.697Z,15.46
2022-07-30T02:16:27.507Z,15.43
2022-07-30T02:17:30.486Z,15.43
2022-07-30T02:18:28.419Z,15.48
2022-07-30T02:19:32.574Z,15.43
2022-07-30T02:20:28.538Z,15.44
2022-07-30T02:21:36.353Z,15.43
2022-07-30T02:22:28.370Z,15.43
2022-07-30T02:23:27.350Z,15.46
2022-07-30T02:24:27.339Z,15.48
2022-07-30T02:25:27.351Z,15.48
2022-07-30T02:26:27.315Z,15.43
2022-07-30T02:27:27.309Z,15.41
2022-07-30T02:28:27.287Z,15.40
2022-07-30T02:29:27.271Z,15.41
2022-07-30T02:30:27.290Z,15.44
2022-07-30T02:31:27.285Z,15.46
2022-07-30T02:32:27.720Z,15.41
2022-07-30T02:33:27.219Z,15.43
2022-07-30T02:34:27.210Z,15.44
2022-07-30T02:35:27.218Z,15.41
2022-07-30T02:36:27.181Z,15.43
2022-07-30T02:37:42.955Z,15.41
2022-07-30T02:38:28.159Z,15.43
2022-07-30T02:39:27.141Z,15.44
2022-07-30T02:40:27.162Z,15.41
2022-07-30T02:41:27.110Z,15.43
2022-07-30T02:42:27.111Z,15.41
2022-07-30T02:43:27.081Z,15.44
2022-07-30T02:44:27.080Z,15.43
2022-07-30T02:45:27.100Z,15.46
2022-07-30T02:46:27.117Z,15.44
2022-07-30T02:47:27.031Z,15.46
2022-07-30T02:48:35.068Z,15.46
2022-07-30T02:49:28.010Z,15.46
2022-07-30T02:50:27.034Z,15.48
2022-07-30T02:51:26.981Z,15.51
2022-07-30T02:52:26.970Z,15.46
2022-07-30T02:53:26.962Z,15.44
2022-07-30T02:54:26.952Z,15.44
2022-07-30T02:55:26.951Z,15.44
2022-07-30T02:56:26.911Z,15.46
2022-07-30T02:57:26.901Z,15.44
2022-07-30T02:58:26.922Z,15.43
2022-07-30T02:59:26.884Z,15.40
2022-07-30T03:00:26.911Z,15.44
2022-07-30T03:01:26.874Z,15.40
2022-07-30T03:02:29.519Z,15.40
2022-07-30T03:03:26.826Z,15.40
2022-07-30T03:04:26.811Z,15.40
2022-07-30T03:05:26.791Z,15.38
2022-07-30T03:06:26.813Z,15.43
2022-07-30T03:07:26.771Z,15.41
2022-07-30T03:08:26.765Z,15.40
2022-07-30T03:09:26.752Z,15.44
2022-07-30T03:10:27.732Z,15.46
2022-07-30T03:11:26.742Z,15.48
2022-07-30T03:12:26.711Z,15.49
2022-07-30T03:13:26.681Z,15.49
2022-07-30T03:14:26.681Z,15.51
2022-07-30T03:15:26.661Z,15.49
2022-07-30T03:16:26.667Z,15.51
2022-07-30T03:17:26.632Z,15.52
2022-07-30T03:18:26.631Z,15.52
2022-07-30T03:19:26.620Z,15.53
2022-07-30T03:20:26.599Z,15.52
2022-07-30T03:21:26.573Z,15.52
2022-07-30T03:22:28.945Z,15.51
2022-07-30T03:23:27.554Z,15.52
2022-07-30T03:24:26.491Z,15.52
2022-07-30T03:25:26.536Z,15.55
2022-07-30T03:26:26.552Z,15.58
2022-07-30T03:27:26.505Z,15.56
2022-07-30T03:28:26.453Z,15.56
2022-07-30T03:29:26.472Z,15.59
2022-07-30T03:30:26.446Z,15.58
2022-07-30T03:31:28.428Z,15.58
2022-07-30T03:32:27.442Z,15.60
2022-07-30T03:33:33.614Z,15.59
2022-07-30T03:34:27.364Z,15.59
2022-07-30T03:35:26.348Z,15.59
2022-07-30T03:36:26.372Z,15.59
2022-07-30T03:37:26.314Z,15.62
2022-07-30T03:38:26.314Z,15.58
2022-07-30T03:39:26.293Z,15.58
2022-07-30T03:40:26.284Z,15.59
2022-07-30T03:41:26.295Z,15.60
2022-07-30T03:42:26.262Z,15.59
2022-07-30T03:43:33.521Z,15.60
2022-07-30T03:44:27.223Z,15.60
2022-07-30T03:45:26.205Z,15.64
2022-07-30T03:46:26.284Z,15.59
2022-07-30T03:47:26.201Z,15.62
2022-07-30T03:48:26.175Z,15.66
2022-07-30T03:49:26.219Z,15.62
2022-07-30T03:50:26.180Z,15.66
2022-07-30T03:51:26.154Z,15.62
2022-07-30T03:52:27.126Z,15.66
2022-07-30T03:53:26.103Z,15.64
2022-07-30T03:54:26.103Z,15.66
2022-07-30T03:55:26.082Z,15.67
2022-07-30T03:56:26.103Z,15.68
2022-07-30T03:57:26.057Z,15.66
2022-07-30T03:58:26.046Z,15.67
2022-07-30T03:59:26.023Z,15.68
2022-07-30T04:00:26.013Z,15.68
2022-07-30T04:01:26.073Z,15.68
2022-07-30T04:02:26.004Z,15.70
2022-07-30T04:03:26.083Z,15.73
2022-07-30T04:04:25.974Z,15.68
2022-07-30T04:05:25.952Z,15.67
2022-07-30T04:06:25.974Z,15.67
2022-07-30T04:07:25.924Z,15.68
2022-07-30T04:08:25.926Z,15.68
2022-07-30T04:09:25.894Z,15.70
2022-07-30T04:10:25.896Z,15.68
2022-07-30T04:11:40.721Z,15.68
2022-07-30T04:12:26.854Z,15.68
2022-07-30T04:13:25.855Z,15.70
2022-07-30T04:14:25.825Z,15.66
2022-07-30T04:16:05.995Z,15.70
2022-07-30T04:16:39.447Z,15.68
2022-07-30T04:17:26.824Z,15.67
2022-07-30T04:18:25.774Z,15.71
2022-07-30T04:19:25.768Z,15.70
2022-07-30T04:20:25.753Z,15.70
2022-07-30T04:21:25.774Z,15.71
2022-07-30T04:22:25.728Z,15.70
2022-07-30T04:23:25.735Z,15.71
2022-07-30T04:24:25.703Z,15.73
2022-07-30T04:25:25.694Z,15.77
2022-07-30T04:26:25.703Z,15.76
2022-07-30T04:27:25.678Z,15.77
2022-07-30T04:28:25.665Z,15.74
2022-07-30T04:29:25.655Z,15.76
2022-07-30T04:30:25.625Z,15.77
2022-07-30T04:31:25.679Z,15.78
2022-07-30T04:32:25.606Z,15.80
2022-07-30T04:33:25.593Z,15.85
2022-07-30T04:34:25.591Z,15.78
2022-07-30T04:35:50.629Z,15.81
2022-07-30T04:36:26.566Z,15.84
2022-07-30T04:37:25.545Z,15.85
2022-07-30T04:38:25.516Z,15.85
2022-07-30T04:39:25.520Z,15.85
2022-07-30T04:40:25.493Z,15.86
2022-07-30T04:41:25.525Z,15.91
2022-07-30T04:42:25.475Z,15.85
2022-07-30T04:43:25.465Z,15.85
2022-07-30T04:44:25.446Z,15.85
2022-07-30T04:45:25.506Z,15.86
2022-07-30T04:46:25.488Z,15.88
2022-07-30T04:47:25.408Z,15.89
2022-07-30T04:48:25.403Z,15.88
2022-07-30T04:49:25.465Z,15.88
2022-07-30T04:50:25.363Z,15.91
2022-07-30T04:51:25.387Z,15.91
2022-07-30T04:52:25.347Z,15.91
2022-07-30T04:53:25.331Z,15.91
2022-07-30T04:54:25.345Z,15.91
2022-07-30T04:55:25.301Z,15.95
2022-07-30T04:56:25.315Z,15.93
2022-07-30T04:57:25.302Z,15.92
2022-07-30T04:58:25.257Z,15.95
2022-07-30T04:59:25.339Z,15.95
2022-07-30T05:00:25.235Z,15.96
2022-07-30T05:01:34.092Z,15.99
2022-07-30T05:02:26.209Z,15.98
2022-07-30T05:03:25.199Z,16.03
2022-07-30T05:04:25.207Z,15.99
2022-07-30T05:05:25.254Z,16.01
2022-07-30T05:06:25.177Z,16.03
2022-07-30T05:07:25.138Z,16.06
2022-07-30T05:08:25.196Z,16.06
2022-07-30T05:09:25.129Z,16.08
2022-07-30T05:10:25.107Z,16.11
2022-07-30T05:11:25.121Z,16.13
2022-07-30T05:12:25.075Z,16.14
2022-07-30T05:13:34.216Z,16.14
2022-07-30T05:14:26.052Z,16.17
2022-07-30T05:15:36.270Z,16.17
2022-07-30T05:16:26.072Z,16.22
2022-07-30T05:17:25.016Z,16.22
2022-07-30T05:18:24.998Z,16.23
2022-07-30T05:19:25.012Z,16.22
2022-07-30T05:20:24.977Z,16.23
2022-07-30T05:21:25.009Z,16.18
2022-07-30T05:22:24.959Z,16.18
2022-07-30T05:23:24.949Z,16.17
2022-07-30T05:24:24.921Z,16.18
2022-07-30T05:25:24.908Z,16.22
2022-07-30T05:26:27.724Z,16.23
2022-07-30T05:27:24.888Z,16.23
2022-07-30T05:28:24.949Z,16.25
2022-07-30T05:29:24.859Z,16.27
2022-07-30T05:30:26.156Z,16.27
2022-07-30T05:31:24.959Z,16.27
2022-07-30T05:32:27.028Z,16.27
2022-07-30T05:33:42.322Z,16.30
2022-07-30T05:34:25.789Z,16.29
2022-07-30T05:35:24.811Z,16.30
2022-07-30T05:36:24.900Z,16.32
2022-07-30T05:37:24.788Z,16.30
2022-07-30T05:38:24.775Z,16.29
2022-07-30T05:39:24.732Z,16.32
2022-07-30T05:40:24.709Z,16.32
2022-07-30T05:41:32.162Z,16.33
2022-07-30T05:42:25.687Z,16.33
2022-07-30T05:43:24.671Z,16.32
2022-07-30T05:44:24.665Z,16.32
2022-07-30T05:45:24.649Z,16.30
2022-07-30T05:46:24.697Z,16.30
2022-07-30T05:47:25.619Z,16.33
2022-07-30T05:48:24.696Z,16.32
2022-07-30T05:49:24.779Z,16.33
2022-07-30T05:50:33.421Z,16.33
2022-07-30T05:51:24.787Z,16.29
2022-07-30T05:52:24.917Z,16.33
2022-07-30T05:53:24.850Z,16.34
2022-07-30T05:54:24.802Z,16.34
2022-07-30T05:55:24.509Z,16.33
2022-07-30T05:56:24.540Z,16.40
2022-07-30T05:57:24.576Z,16.42
2022-07-30T05:58:24.490Z,16.44
2022-07-30T05:59:24.470Z,16.42
2022-07-30T06:00:24.490Z,16.47
2022-07-30T06:01:24.533Z,16.51
2022-07-30T06:02:24.737Z,16.50
2022-07-30T06:03:24.410Z,16.48
2022-07-30T06:04:24.565Z,16.48
2022-07-30T06:05:24.530Z,16.48
2022-07-30T06:06:24.453Z,16.47
2022-07-30T06:07:24.374Z,16.48
2022-07-30T06:08:24.383Z,16.51
2022-07-30T06:09:32.930Z,16.52
2022-07-30T06:10:25.321Z,16.51
2022-07-30T06:11:24.338Z,16.54
2022-07-30T06:12:24.292Z,16.52
2022-07-30T06:13:24.292Z,16.51
2022-07-30T06:14:24.261Z,16.51
2022-07-30T06:15:25.692Z,16.54
2022-07-30T06:16:24.302Z,16.55
2022-07-30T06:17:24.239Z,16.48
2022-07-30T06:18:24.217Z,16.51
2022-07-30T06:19:24.242Z,16.57
2022-07-30T06:20:24.991Z,16.54
2022-07-30T06:21:24.213Z,16.54
2022-07-30T06:22:26.095Z,16.54
2022-07-30T06:23:24.164Z,16.54
2022-07-30T06:24:24.132Z,16.54
2022-07-30T06:25:24.134Z,16.54
2022-07-30T06:26:24.152Z,16.55
2022-07-30T06:27:24.103Z,16.55
2022-07-30T06:28:39.803Z,16.51
2022-07-30T06:29:25.086Z,16.52
2022-07-30T06:30:30.544Z,16.54
2022-07-30T06:31:25.125Z,16.57
2022-07-30T06:32:24.035Z,16.57
2022-07-30T06:33:24.030Z,16.55
2022-07-30T06:34:24.009Z,16.54
2022-07-30T06:35:24.009Z,16.62
2022-07-30T06:36:24.144Z,16.60
2022-07-30T06:37:23.975Z,16.62
2022-07-30T06:38:29.224Z,16.65
2022-07-30T06:39:56.710Z,16.69
2022-07-30T06:40:24.923Z,16.73
2022-07-30T06:41:23.953Z,16.77
2022-07-30T06:42:23.903Z,16.82
2022-07-30T06:43:23.900Z,16.90
2022-07-30T06:44:23.874Z,16.90
2022-07-30T06:45:23.874Z,16.91
2022-07-30T06:46:24.132Z,16.98
2022-07-30T06:47:23.842Z,17.00
2022-07-30T06:48:23.831Z,17.02
2022-07-30T06:49:23.861Z,17.02
2022-07-30T06:50:23.802Z,17.03
2022-07-30T06:51:23.822Z,17.05
2022-07-30T06:52:23.781Z,17.09
2022-07-30T06:53:23.773Z,17.09
2022-07-30T06:54:23.745Z,17.10
2022-07-30T06:55:23.771Z,17.15
2022-07-30T06:56:23.750Z,17.17
2022-07-30T06:57:23.714Z,17.21
2022-07-30T06:58:25.259Z,17.21
2022-07-30T06:59:23.694Z,17.22
2022-07-30T07:00:23.683Z,17.24
2022-07-30T07:01:23.714Z,17.21
2022-07-30T07:02:23.644Z,17.22
2022-07-30T07:03:23.894Z,17.21
2022-07-30T07:04:23.765Z,17.22
2022-07-30T07:05:23.775Z,17.28
2022-07-30T07:06:23.654Z,17.32
2022-07-30T07:07:40.891Z,17.33
2022-07-30T07:08:25.312Z,17.40
2022-07-30T07:09:23.576Z,17.42
2022-07-30T07:10:23.605Z,17.46
2022-07-30T07:11:23.556Z,17.47
2022-07-30T07:12:23.569Z,17.51
2022-07-30T07:13:23.505Z,17.57
2022-07-30T07:14:23.489Z,17.63
2022-07-30T07:15:37.333Z,17.71
2022-07-30T07:16:24.545Z,17.77
2022-07-30T07:17:23.752Z,17.86
2022-07-30T07:18:23.438Z,17.86
2022-07-30T07:20:00.972Z,17.91
2022-07-30T07:20:24.494Z,17.95
2022-07-30T07:21:23.426Z,17.98
2022-07-30T07:22:23.566Z,18.05
2022-07-30T07:23:23.506Z,18.14
2022-07-30T07:24:23.398Z,18.21
2022-07-30T07:25:23.514Z,18.29
2022-07-30T07:26:23.698Z,18.34
2022-07-30T07:27:23.533Z,18.36
2022-07-30T07:28:23.306Z,18.39
2022-07-30T07:29:24.299Z,18.46
2022-07-30T07:30:23.277Z,18.50
2022-07-30T07:32:05.445Z,18.56
2022-07-30T07:32:24.280Z,18.59
2022-07-30T07:33:23.250Z,18.65
2022-07-30T07:34:23.227Z,18.65
2022-07-30T07:35:23.237Z,18.62
2022-07-30T07:36:23.198Z,18.64
2022-07-30T07:37:23.551Z,18.68
2022-07-30T07:38:23.177Z,18.74
2022-07-30T07:39:23.165Z,18.82
2022-07-30T07:40:23.202Z,19.07
2022-07-30T07:41:23.149Z,19.42
2022-07-30T07:42:23.169Z,19.60
2022-07-30T07:43:23.115Z,19.64
2022-07-30T07:44:23.099Z,19.65
2022-07-30T07:45:23.097Z,19.70
2022-07-30T07:46:33.611Z,19.87
2022-07-30T07:47:24.135Z,20.07
2022-07-30T07:48:23.610Z,20.37
2022-07-30T07:49:23.076Z,21.00
2022-07-30T07:50:23.032Z,21.61
2022-07-30T07:51:47.213Z,22.17
2022-07-30T07:52:24.018Z,22.59
2022-07-30T07:53:22.979Z,22.46
2022-07-30T07:54:23.453Z,22.76
2022-07-30T07:55:22.959Z,23.06
2022-07-30T07:56:22.939Z,23.34
2022-07-30T07:57:22.960Z,23.50
2022-07-30T07:58:26.284Z,23.81
2022-07-30T07:59:22.950Z,24.21
2022-07-30T08:00:22.891Z,24.45
2022-07-30T08:01:22.912Z,24.71
2022-07-30T08:02:22.938Z,24.77
2022-07-30T08:03:22.870Z,24.63
2022-07-30T08:04:22.840Z,24.80
2022-07-30T08:05:22.841Z,24.82
2022-07-30T08:06:22.828Z,24.49
2022-07-30T08:07:23.041Z,24.09
2022-07-30T08:08:22.811Z,23.78
2022-07-30T08:09:22.829Z,23.49
2022-07-30T08:10:23.604Z,23.22
2022-07-30T08:11:22.751Z,22.88
2022-07-30T08:12:22.761Z,22.51
2022-07-30T08:13:52.005Z,22.20
2022-07-30T08:14:23.712Z,21.93
2022-07-30T08:15:22.705Z,21.73
2022-07-30T08:16:22.705Z,21.56
2022-07-30T08:17:22.770Z,21.36
2022-07-30T08:18:22.655Z,21.24
2022-07-30T08:19:22.649Z,21.18
2022-07-30T08:20:22.663Z,21.11
2022-07-30T08:21:22.629Z,21.08
2022-07-30T08:22:22.643Z,20.97
2022-07-30T08:23:22.601Z,20.88
2022-07-30T08:24:22.590Z,20.87
2022-07-30T08:25:24.543Z,20.81
2022-07-30T08:26:22.561Z,20.78
2022-07-30T08:27:22.574Z,20.72
2022-07-30T08:28:35.756Z,20.63
2022-07-30T08:29:23.542Z,20.51
2022-07-30T08:30:22.603Z,20.44
2022-07-30T08:31:22.523Z,20.42
2022-07-30T08:32:22.607Z,20.50
2022-07-30T08:33:22.474Z,20.50
2022-07-30T08:34:25.642Z,20.48
2022-07-30T08:35:22.444Z,20.48
2022-07-30T08:36:25.745Z,20.51
2022-07-30T08:37:22.445Z,20.51
2022-07-30T08:38:22.493Z,20.53
2022-07-30T08:39:22.415Z,20.60
2022-07-30T08:40:22.394Z,20.64
2022-07-30T08:41:22.364Z,20.82
2022-07-30T08:42:22.397Z,21.01
2022-07-30T08:43:22.336Z,21.09
2022-07-30T08:44:22.325Z,21.19
2022-07-30T08:45:34.679Z,21.24
2022-07-30T08:46:23.307Z,21.26
2022-07-30T08:47:22.327Z,21.33
2022-07-30T08:48:22.277Z,21.48
2022-07-30T08:49:22.257Z,21.61
2022-07-30T08:50:22.255Z,21.67
2022-07-30T08:51:22.237Z,21.68
2022-07-30T08:52:22.257Z,21.67
2022-07-30T08:53:22.207Z,21.59
2022-07-30T08:54:22.198Z,21.52
2022-07-30T08:55:22.187Z,21.45
2022-07-30T08:56:22.176Z,21.42
2022-07-30T08:57:22.191Z,21.53
2022-07-30T08:58:22.148Z,21.66
2022-07-30T08:59:22.140Z,21.71
2022-07-30T09:00:22.128Z,21.66
2022-07-30T09:01:22.108Z,21.59
2022-07-30T09:02:27.861Z,21.63
2022-07-30T09:03:23.079Z,21.59
2022-07-30T09:04:22.077Z,21.56
2022-07-30T09:05:22.057Z,21.58
2022-07-30T09:06:22.050Z,21.64
2022-07-30T09:07:22.076Z,21.66
2022-07-30T09:08:22.029Z,21.75
2022-07-30T09:09:22.007Z,21.91
2022-07-30T09:10:22.000Z,22.24
2022-07-30T09:11:21.979Z,22.64
2022-07-30T09:12:22.000Z,23.19
2022-07-30T09:13:21.950Z,23.34
2022-07-30T09:14:21.950Z,23.38
2022-07-30T09:15:22.922Z,23.42
2022-07-30T09:16:21.951Z,23.68
2022-07-30T09:17:21.929Z,23.94
2022-07-30T09:18:21.890Z,23.96
2022-07-30T09:19:21.884Z,24.36
2022-07-30T09:20:21.915Z,24.92
2022-07-30T09:21:21.842Z,25.48
2022-07-30T09:22:21.867Z,25.91
2022-07-30T09:23:21.822Z,26.36
2022-07-30T09:24:21.820Z,26.79
2022-07-30T09:25:21.792Z,27.23
2022-07-30T09:26:21.791Z,27.45
2022-07-30T09:27:21.791Z,27.59
2022-07-30T09:28:21.782Z,27.63
2022-07-30T09:29:21.743Z,27.63
2022-07-30T09:30:21.742Z,27.69
2022-07-30T09:31:21.820Z,27.74
2022-07-30T09:32:21.732Z,27.52
2022-07-30T09:33:21.690Z,26.90
2022-07-30T09:34:21.683Z,26.69
2022-07-30T09:35:21.664Z,26.69
2022-07-30T09:36:21.684Z,26.83
2022-07-30T09:37:21.670Z,26.98
2022-07-30T09:38:21.649Z,27.21
2022-07-30T09:39:21.615Z,27.49
2022-07-30T09:40:21.635Z,27.63
2022-07-30T09:41:38.190Z,27.81
2022-07-30T09:42:22.612Z,27.81
2022-07-30T09:43:27.213Z,27.88
2022-07-30T09:44:22.553Z,27.88
2022-07-30T09:45:21.537Z,27.83
2022-07-30T09:46:21.527Z,27.65
2022-07-30T09:47:21.555Z,27.63
2022-07-30T09:48:21.506Z,27.62
2022-07-30T09:49:21.616Z,27.66
2022-07-30T09:50:30.397Z,27.80
2022-07-30T09:51:54.459Z,27.96
2022-07-30T09:52:27.004Z,28.05
2022-07-30T09:53:22.427Z,28.20
2022-07-30T09:54:21.418Z,28.36
2022-07-30T09:55:21.405Z,28.50
2022-07-30T09:56:21.387Z,28.46
2022-07-30T09:57:25.850Z,28.43
2022-07-30T09:58:27.096Z,28.70
2022-07-30T09:59:22.348Z,28.73
2022-07-30T10:00:23.999Z,28.67
2022-07-30T10:01:21.319Z,28.73
2022-07-30T10:02:21.348Z,28.88
2022-07-30T10:03:33.019Z,29.05
2022-07-30T10:04:22.289Z,29.03
2022-07-30T10:05:21.300Z,29.03
2022-07-30T10:06:21.261Z,28.85
2022-07-30T10:07:25.603Z,28.73
2022-07-30T10:08:21.239Z,28.89
2022-07-30T10:09:21.224Z,29.02
2022-07-30T10:10:21.212Z,29.23
2022-07-30T10:11:22.763Z,29.41
2022-07-30T10:12:23.991Z,29.42
2022-07-30T10:13:21.204Z,29.42
2022-07-30T10:14:30.866Z,28.60
2022-07-30T10:15:22.171Z,28.62
2022-07-30T10:16:21.295Z,28.65
2022-07-30T10:17:21.142Z,28.55
2022-07-30T10:18:21.110Z,28.45
2022-07-30T10:19:23.454Z,28.45
2022-07-30T10:20:22.093Z,28.46
2022-07-30T10:21:21.074Z,28.62
2022-07-30T10:22:21.089Z,28.67
2022-07-30T10:23:27.102Z,28.74
2022-07-30T10:24:27.664Z,28.91
2022-07-30T10:25:23.175Z,29.08
2022-07-30T10:26:22.004Z,28.98
2022-07-30T10:27:21.015Z,28.94
2022-07-30T10:28:20.975Z,28.98
2022-07-30T10:29:20.965Z,29.02
2022-07-30T10:30:21.966Z,29.00
2022-07-30T10:31:48.748Z,28.97
2022-07-30T10:32:30.580Z,29.03
2022-07-30T10:33:37.601Z,29.08
2022-07-30T10:34:23.695Z,29.02
2022-07-30T10:35:34.941Z,29.02
2022-07-30T10:36:21.875Z,28.97
2022-07-30T10:37:20.889Z,28.91
2022-07-30T10:38:20.917Z,28.61
2022-07-30T10:39:20.838Z,28.46
2022-07-30T10:40:23.063Z,28.51
2022-07-30T10:41:27.509Z,28.25
2022-07-30T10:42:21.836Z,27.65
2022-07-30T10:43:20.854Z,27.31
2022-07-30T10:44:20.788Z,27.62
2022-07-30T10:45:20.760Z,28.01
2022-07-30T10:46:23.183Z,28.30
2022-07-30T10:47:20.792Z,28.32
2022-07-30T10:48:20.720Z,27.76
2022-07-30T10:49:20.746Z,27.76
2022-07-30T10:50:22.295Z,27.93
2022-07-30T10:51:25.562Z,28.18
2022-07-30T10:52:21.701Z,28.51
2022-07-30T10:53:20.672Z,28.54
2022-07-30T10:54:20.648Z,28.13
2022-07-30T10:55:20.643Z,27.83
2022-07-30T10:56:25.638Z,27.99
2022-07-30T10:57:22.985Z,28.17
2022-07-30T10:58:23.113Z,28.35
2022-07-30T10:59:20.581Z,28.48
2022-07-30T11:00:20.573Z,28.61
2022-07-30T11:01:20.554Z,28.80
2022-07-30T11:02:20.577Z,29.03
2022-07-30T11:03:20.525Z,29.21
2022-07-30T11:04:20.661Z,29.20
2022-07-30T11:05:43.900Z,29.27
2022-07-30T11:06:24.366Z,29.39
2022-07-30T11:07:20.537Z,29.36
2022-07-30T11:08:20.483Z,29.03
2022-07-30T11:09:21.452Z,28.91
2022-07-30T11:10:20.445Z,29.12
2022-07-30T11:11:20.576Z,29.20
2022-07-30T11:12:20.666Z,29.45
2022-07-30T11:13:20.426Z,29.60
2022-07-30T11:14:20.637Z,29.78
2022-07-30T11:15:20.376Z,29.69
2022-07-30T11:16:20.364Z,29.74
2022-07-30T11:17:20.357Z,29.41
2022-07-30T11:18:20.410Z,28.69
2022-07-30T11:19:55.123Z,28.08
2022-07-30T11:20:21.328Z,27.93
2022-07-30T11:21:20.767Z,28.23
2022-07-30T11:22:20.287Z,28.58
2022-07-30T11:23:20.309Z,28.91
2022-07-30T11:24:20.269Z,29.08
2022-07-30T11:25:20.288Z,29.11
2022-07-30T11:26:20.321Z,29.18
2022-07-30T11:27:20.220Z,29.12
2022-07-30T11:28:20.252Z,29.23
2022-07-30T11:29:20.190Z,29.14
2022-07-30T11:30:21.190Z,28.92
2022-07-30T11:31:20.164Z,29.08
2022-07-30T11:32:21.189Z,29.08
2022-07-30T11:33:20.287Z,29.17
2022-07-30T11:34:20.131Z,29.30
2022-07-30T11:35:20.121Z,29.32
2022-07-30T11:36:20.241Z,29.49
2022-07-30T11:37:22.246Z,29.69
2022-07-30T11:38:22.462Z,29.84
2022-07-30T11:39:20.104Z,30.03
2022-07-30T11:40:26.081Z,30.25
2022-07-30T11:41:21.133Z,30.28
2022-07-30T11:42:20.038Z,30.22
2022-07-30T11:43:20.194Z,30.29
2022-07-30T11:44:20.029Z,30.25
2022-07-30T11:45:20.004Z,30.25
2022-07-30T11:46:28.790Z,30.00
2022-07-30T11:47:20.965Z,29.81
2022-07-30T11:48:20.085Z,29.71
2022-07-30T11:49:19.970Z,29.67
2022-07-30T11:50:19.942Z,29.66
2022-07-30T11:51:20.007Z,29.67
2022-07-30T11:52:19.923Z,29.62
2022-07-30T11:53:19.916Z,29.62
2022-07-30T11:54:19.886Z,29.62
2022-07-30T11:55:19.867Z,29.70
2022-07-30T11:56:19.857Z,29.63
2022-07-30T11:57:19.839Z,29.48
2022-07-30T11:58:19.968Z,29.47
2022-07-30T11:59:19.817Z,29.62
2022-07-30T12:00:19.809Z,29.91
2022-07-30T12:01:19.789Z,30.10
2022-07-30T12:02:19.781Z,29.73
2022-07-30T12:03:19.914Z,29.52
2022-07-30T12:04:19.768Z,29.63
2022-07-30T12:05:19.741Z,29.62
2022-07-30T12:06:19.738Z,29.49
2022-07-30T12:07:19.723Z,29.15
2022-07-30T12:08:36.065Z,28.62
2022-07-30T12:09:20.721Z,28.62
2022-07-30T12:10:27.742Z,28.83
2022-07-30T12:11:20.662Z,29.25
2022-07-30T12:12:19.671Z,29.55
2022-07-30T12:13:19.673Z,29.89
2022-07-30T12:14:19.634Z,30.25
2022-07-30T12:15:19.613Z,30.48
2022-07-30T12:16:19.604Z,30.53
2022-07-30T12:17:19.591Z,30.68
2022-07-30T12:18:27.136Z,30.49
2022-07-30T12:19:20.573Z,30.25
2022-07-30T12:20:19.556Z,29.86
2022-07-30T12:21:19.546Z,29.67
2022-07-30T12:22:20.163Z,29.29
2022-07-30T12:23:21.566Z,28.74
2022-07-30T12:24:19.504Z,28.42
2022-07-30T12:25:19.496Z,28.18
2022-07-30T12:26:19.477Z,27.91
2022-07-30T12:27:19.458Z,27.76
2022-07-30T12:28:19.488Z,27.63
2022-07-30T12:29:20.388Z,27.45
2022-07-30T12:30:19.427Z,27.58
2022-07-30T12:31:19.426Z,27.83
2022-07-30T12:32:19.398Z,28.33
2022-07-30T12:33:19.443Z,28.89
2022-07-30T12:34:19.387Z,29.02
2022-07-30T12:35:19.359Z,28.85
2022-07-30T12:36:19.351Z,29.07
2022-07-30T12:37:19.396Z,29.64
2022-07-30T12:38:19.349Z,30.07
2022-07-30T12:39:19.310Z,30.48
2022-07-30T12:40:19.313Z,30.72
2022-07-30T12:41:19.322Z,30.93
2022-07-30T12:42:19.271Z,31.16
2022-07-30T12:43:19.291Z,31.25
2022-07-30T12:44:19.250Z,30.96
2022-07-30T12:45:19.324Z,30.54
2022-07-30T12:46:19.356Z,30.04
2022-07-30T12:47:19.241Z,29.67
2022-07-30T12:48:19.352Z,29.29
2022-07-30T12:49:22.283Z,29.12
2022-07-30T12:50:19.214Z,28.91
2022-07-30T12:51:19.163Z,28.97
2022-07-30T12:52:27.758Z,28.92